Time;durP1;ratioP1;P1;durP2;ratioP2;P2;SDS_P1;SDS_P2;PMS_P1;PMS_P2;Temp;Humidity;BMP_temperature;BMP_pressure;BME280_temperature;BME280_humidity;BME280_pressure;Samples;Min_cycle;Max_cycle;Signal;HPM_P1;HPM_P2
2020/12/20 00:04:25;;;;;;;103.57;33.80;;;;;;;;;;4803925;29;20222;-93
2020/12/20 00:06:54;;;;;;;71.57;26.77;;;;;;;;;;4770984;29;20650;-93
2020/12/20 00:09:58;;;;;;;;;;;;;;;;;;;;;
2020/12/20 00:12:29;;;;;;;101.97;38.40;;;;;;;;;;4786769;29;20720;-93
2020/12/20 00:15:18;;;;;;;78.50;26.57;;;;;;;;;;4852496;29;20284;-93
2020/12/20 00:17:48;;;;;;;61.60;23.00;;;;;;;;;;4901190;29;20219;-94
2020/12/20 00:20:20;;;;;;;110.20;38.63;;;;;;;;;;4912825;29;20202;-94
2020/12/20 00:22:54;;;;;;;59.40;23.43;;;;;;;;;;4919317;29;20205;-94
2020/12/20 00:25:49;;;;;;;60.33;22.03;;;;;;;;;;4976579;28;20647;-92
2020/12/20 00:28:20;;;;;;;58.93;21.27;;;;;;;;;;4957900;28;20181;-95
2020/12/20 00:34:47;;;;;;;52.60;21.23;;;0.70;99.90;;;;;;4953207;28;20198;-93
2020/12/20 00:37:29;;;;;;;;;;;;;;;;;;;;;
2020/12/20 00:40:39;;;;;;;62.73;23.47;;;;;;;;;;4953963;29;20187;-93
2020/12/20 00:43:17;;;;;;;93.53;36.40;;;;;;;;;;4933924;29;20196;-95
2020/12/20 00:45:49;;;;;;;71.67;25.77;;;;;;;;;;4966340;28;20252;-95
2020/12/20 00:48:15;;;;;;;59.90;21.73;;;;;;;;;;4994326;28;20807;-93
2020/12/20 00:50:41;;;;;;;51.33;20.10;;;;;;;;;;4993823;28;20646;-93
2020/12/20 00:53:07;;;;;;;72.83;22.97;;;;;;;;;;4992931;28;20212;-93
2020/12/20 00:55:33;;;;;;;49.80;18.00;;;;;;;;;;4993131;28;20182;-92
2020/12/20 00:58:02;;;;;;;70.37;25.93;;;;;;;;;;4993706;28;20178;-93
2020/12/20 01:00:28;;;;;;;50.30;17.63;;;;;;;;;;4977701;28;20184;-94
2020/12/20 01:02:59;;;;;;;61.07;16.93;;;;;;;;;;4995195;28;20205;-94
2020/12/20 01:05:31;;;;;;;45.70;16.30;;;;;;;;;;4978996;28;20185;-95
2020/12/20 01:08:03;;;;;;;42.23;17.63;;;;;;;;;;4993390;28;20177;-94
2020/12/20 01:10:47;;;;;;;43.90;18.33;;;;;;;;;;4993017;28;20193;-94
2020/12/20 01:13:13;;;;;;;42.87;16.60;;;;;;;;;;4993237;28;20271;-94
2020/12/20 01:15:39;;;;;;;46.50;17.40;;;;;;;;;;4996964;28;20218;-94
2020/12/20 01:18:10;;;;;;;42.77;16.13;;;;;;;;;;5001861;28;20192;-95
2020/12/20 01:20:36;;;;;;;42.40;16.40;;;;;;;;;;5002200;28;20196;-94
2020/12/20 01:23:02;;;;;;;43.57;16.90;;;;;;;;;;5002082;28;20181;-94
2020/12/20 01:25:28;;;;;;;44.33;16.53;;;;;;;;;;5015100;28;20209;-93
2020/12/20 01:28:05;;;;;;;42.13;17.47;;;;;;;;;;5018909;28;20236;-91
2020/12/20 01:30:46;;;;;;;46.47;17.50;;;;;;;;;;5018446;28;20232;-90
2020/12/20 01:33:34;;;;;;;53.10;19.13;;;;;;;;;;5018127;28;20209;-90
2020/12/20 01:36:05;;;;;;;54.03;21.40;;;;;;;;;;5003302;28;20186;-93
2020/12/20 01:38:31;;;;;;;55.23;22.57;;;;;;;;;;5000777;28;20197;-92
2020/12/20 01:41:03;;;;;;;43.87;17.87;;;;;;;;;;5012606;28;20169;-89
2020/12/20 01:43:42;;;;;;;67.33;17.83;;;;;;;;;;5019843;28;20174;-89
2020/12/20 01:46:09;;;;;;;64.43;19.33;;;;;;;;;;5019885;28;20195;-88
2020/12/20 01:48:38;;;;;;;65.33;21.53;;;;;;;;;;5018397;28;20188;-91
2020/12/20 01:51:05;;;;;;;60.37;18.43;;;;;;;;;;5019887;28;20203;-89
2020/12/20 01:53:31;;;;;;;55.93;21.73;;;;;;;;;;5019884;28;20188;-89
2020/12/20 01:55:59;;;;;;;51.00;20.17;;;;;;;;;;5005426;28;20279;-94
2020/12/20 01:58:31;;;;;;;47.77;19.93;;;;;;;;;;4996726;28;20206;-93
2020/12/20 02:01:02;;;;;;;46.47;18.67;;;;;;;;;;5016804;28;20184;-92
2020/12/20 02:03:53;;;;;;;50.70;20.20;;;;;;;;;;4999337;28;20177;-92
2020/12/20 02:06:42;;;;;;;;;;;;;;;;;;;;;
2020/12/20 02:09:08;;;;;;;38.83;16.57;;;;;;;;;;5001851;28;20626;-92
2020/12/20 02:11:35;;;;;;;45.87;16.90;;;;;;;;;;4998521;28;20212;-92
2020/12/20 02:14:03;;;;;;;49.83;16.70;;;;;;;;;;4998995;28;20246;-91
2020/12/20 02:16:38;;;;;;;40.00;17.17;;;;;;;;;;4982230;28;20275;-93
2020/12/20 02:19:12;;;;;;;40.87;17.00;;;;;;;;;;4998969;28;20181;-92
2020/12/20 02:21:40;;;;;;;44.20;17.33;;;;;;;;;;4998467;28;20180;-93
2020/12/20 02:24:12;;;;;;;55.13;16.50;;;;;;;;;;4982532;28;20216;-91
2020/12/20 02:26:49;;;;;;;50.80;16.83;;;;;;;;;;4982480;28;20181;-92
2020/12/20 02:29:39;;;;;;;47.37;17.83;;;;;;;;;;4998730;28;20633;-92
2020/12/20 02:32:07;;;;;;;46.20;16.53;;;;;;;;;;4992835;28;20272;-93
2020/12/20 02:34:33;;;;;;;39.13;17.27;;;;;;;;;;4997981;28;20183;-94
2020/12/20 02:37:00;;;;;;;47.60;18.60;;;;;;;;;;4998686;28;20705;-92
2020/12/20 02:39:28;;;;;;;52.10;22.10;;;;;;;;;;4998495;28;20307;-92
2020/12/20 02:41:55;;;;;;;53.20;18.90;;;;;;;;;;4998447;28;20195;-93
2020/12/20 02:44:29;;;;;;;41.53;18.07;;;;;;;;;;4982367;28;20184;-94
2020/12/20 02:46:55;;;;;;;47.73;18.97;;;;;;;;;;4998678;28;20333;-92
2020/12/20 02:49:21;;;;;;;41.47;18.67;;;;;;;;;;4998591;28;20190;-93
2020/12/20 02:51:50;;;;;;;45.87;16.47;;;;;;;;;;4997845;28;20210;-93
2020/12/20 02:54:19;;;;;;;52.17;18.37;;;;;;;;;;4998424;28;20200;-93
2020/12/20 02:56:45;;;;;;;49.60;17.70;;;;;;;;;;4997890;28;20195;-94
2020/12/20 02:59:11;;;;;;;58.37;21.20;;;;;;;;;;4998094;28;20277;-94
2020/12/20 03:02:07;;;;;;;61.73;26.03;;;;;;;;;;4997932;28;20186;-94
2020/12/20 03:04:38;;;;;;;51.43;24.17;;;;;;;;;;4998142;28;20312;-94
2020/12/20 03:07:10;;;;;;;52.53;20.13;;;;;;;;;;4981484;28;20196;-93
2020/12/20 03:09:38;;;;;;;46.37;19.73;;;;;;;;;;4998537;28;20254;-94
2020/12/20 03:12:04;;;;;;;42.37;17.87;;;;;;;;;;4998105;28;20209;-93
2020/12/20 03:14:41;;;;;;;38.10;15.67;;;;;;;;;;4997822;28;20277;-95
2020/12/20 03:17:09;;;;;;;49.00;18.47;;;;;;;;;;4997947;28;20240;-93
2020/12/20 03:19:40;;;;;;;46.77;16.97;;;;;;;;;;4997104;28;20266;-91
2020/12/20 03:22:07;;;;;;;39.37;16.40;;;;;;;;;;4997535;28;20184;-94
2020/12/20 03:24:36;;;;;;;41.40;19.37;;;;;;;;;;4997576;28;20280;-94
2020/12/20 03:27:04;;;;;;;48.27;21.27;;;;;;;;;;4997854;28;20184;-94
2020/12/20 03:29:33;;;;;;;102.47;36.50;;;;;;;;;;4997457;28;20625;-93
2020/12/20 03:32:01;;;;;;;69.67;28.37;;;;;;;;;;4997551;28;20577;-93
2020/12/20 03:34:30;;;;;;;59.33;27.43;;;;;;;;;;4997503;28;20186;-93
2020/12/20 03:37:31;;;;;;;51.20;24.90;;;;;;;;;;4981591;28;20189;-95
2020/12/20 03:40:10;;;;;;;47.37;21.43;;;;;;;;;;4997688;28;20188;-93
2020/12/20 03:42:36;;;;;;;41.07;20.83;;;;;;;;;;4997342;28;20237;-93
2020/12/20 03:45:02;;;;;;;44.43;19.23;;;;;;;;;;4997526;28;20184;-95
2020/12/20 03:47:37;;;;;;;41.70;18.20;;;;;;;;;;4997506;28;20185;-95
2020/12/20 03:50:15;;;;;;;49.60;14.97;;;;;;;;;;5015136;28;20196;-94
2020/12/20 03:52:41;;;;;;;49.53;16.87;;;;;;;;;;4997058;28;20217;-94
2020/12/20 03:55:18;;;;;;;40.00;17.33;;;;;;;;;;4997098;28;20182;-93
2020/12/20 03:57:46;;;;;;;39.77;16.73;;;;;;;;;;4996935;28;20176;-93
2020/12/20 04:00:18;;;;;;;32.83;15.33;;;;;;;;;;4996742;28;20189;-94
2020/12/20 04:02:44;;;;;;;31.50;14.47;;;;;;;;;;4980272;28;20215;-92
2020/12/20 04:05:13;;;;;;;36.83;15.43;;;;;;;;;;4996503;28;20644;-89
2020/12/20 04:07:39;;;;;;;36.53;15.73;;;;;;;;;;4980399;28;20199;-90
2020/12/20 04:10:16;;;;;;;51.13;15.30;;;;;;;;;;4996697;28;20183;-95
2020/12/20 04:12:45;;;;;;;37.77;15.00;;;;;;;;;;4976153;28;20227;-92
2020/12/20 04:15:11;;;;;;;47.03;14.30;;;;;;;;;;4976259;28;20196;-94
2020/12/20 04:17:37;;;;;;;39.10;14.83;;;;;;;;;;4976091;28;20231;-95
2020/12/20 04:20:03;;;;;;;48.87;14.83;;;;;;;;;;4976980;28;20191;-93
2020/12/20 04:22:29;;;;;;;41.47;15.83;;;;;;;;;;4976232;28;20300;-94
2020/12/20 04:24:55;;;;;;;54.20;15.53;;;;;;;;;;4976163;28;20228;-95
2020/12/20 04:27:21;;;;;;;47.93;18.07;;;;;;;;;;4976188;28;20589;-93
2020/12/20 04:30:02;;;;;;;47.57;17.27;;;;;;;;;;4975598;28;20183;-93
2020/12/20 04:32:59;;;;;;;51.83;15.97;;;;;;;;;;4975988;28;20246;-93
2020/12/20 04:35:28;;;;;;;37.43;15.73;;;;;;;;;;4975390;28;20237;-94
2020/12/20 04:37:57;;;;;;;38.97;14.60;;;;;;;;;;4991843;28;20223;-93
2020/12/20 04:40:34;;;;;;;40.73;15.63;;;;;;;;;;4996808;28;20196;-93
2020/12/20 04:43:29;;;;;;;34.87;14.53;;;;;;;;;;4980852;28;20208;-94
2020/12/20 04:45:57;;;;;;;38.83;15.33;;;;;;;;;;4996070;28;20193;-94
2020/12/20 04:48:28;;;;;;;39.77;15.73;;;;;;;;;;4996829;28;20187;-96
2020/12/20 04:50:57;;;;;;;36.20;15.10;;;;;;;;;;4996548;28;20194;-95
2020/12/20 04:53:23;;;;;;;56.13;22.97;;;;;;;;;;4996963;28;20638;-95
2020/12/20 04:55:50;;;;;;;63.43;22.50;;;;;;;;;;4996645;28;20518;-94
2020/12/20 04:58:16;;;;;;;38.27;16.33;;;;;;;;;;4996392;28;20238;-94
2020/12/20 05:00:43;;;;;;;38.27;16.37;;;;;;;;;;4996391;28;20181;-94
2020/12/20 05:03:09;;;;;;;36.87;15.17;;;;;;;;;;4996750;28;20192;-95
2020/12/20 05:05:35;;;;;;;37.87;17.63;;;;;;;;;;4996588;28;20185;-95
2020/12/20 05:08:03;;;;;;;35.67;17.70;;;;;;;;;;4996128;28;20196;-94
2020/12/20 05:10:48;;;;;;;34.00;16.20;;;;;;;;;;4996553;28;20635;-95
2020/12/20 05:13:14;;;;;;;43.30;18.60;;;;;;;;;;4996615;28;20308;-94
2020/12/20 05:15:40;;;;;;;42.77;17.43;;;;;;;;;;4996307;28;20316;-94
2020/12/20 05:18:14;;;;;;;37.87;15.87;;;;;;;;;;4996082;28;20196;-93
2020/12/20 05:20:47;;;;;;;42.97;16.60;;;;;;;;;;4996094;28;20185;-94
2020/12/20 05:23:14;;;;;;;33.80;15.53;;;;;;;;;;4996089;28;20197;-93
2020/12/20 05:25:41;;;;;;;36.87;15.80;;;;;;;;;;4996339;28;20181;-93
2020/12/20 05:28:21;;;;;;;36.87;16.23;;;;;;;;;;4995993;28;20195;-93
2020/12/20 05:30:49;;;;;;;36.10;15.23;;;;;;;;;;4996179;28;20190;-93
2020/12/20 05:33:27;;;;;;;41.07;15.90;;;;;;;;;;4993916;28;20245;-93
2020/12/20 05:36:00;;;;;;;35.50;16.03;;;;;;;;;;4982142;28;20193;-94
2020/12/20 05:38:26;;;;;;;46.17;18.07;;;;;;;;;;4998748;28;20180;-93
2020/12/20 05:40:54;;;;;;;43.70;16.37;;;;;;;;;;4998817;28;20204;-94
2020/12/20 05:43:27;;;;;;;43.47;16.07;;;;;;;;;;4998995;28;20186;-93
2020/12/20 05:45:54;;;;;;;38.53;16.47;;;;;;;;;;4997774;28;20184;-94
2020/12/20 05:48:22;;;;;;;59.93;24.37;;;;;;;;;;4998910;28;20180;-94
2020/12/20 05:50:57;;;;;;;66.70;25.53;;;;;;;;;;4999586;28;20212;-96
2020/12/20 05:53:24;;;;;;;48.80;20.10;;;;;;;;;;4998628;28;20218;-94
2020/12/20 05:55:51;;;;;;;43.93;18.27;;;;;;;;;;4998527;28;20184;-93
2020/12/20 05:58:17;;;;;;;37.07;19.40;;;;;;;;;;5015823;28;20175;-93
2020/12/20 06:00:44;;;;;;;35.47;15.80;;;;;;;;;;4998499;28;20736;-94
2020/12/20 06:03:11;;;;;;;55.83;23.03;;;;;;;;;;4998388;28;20189;-93
2020/12/20 06:05:45;;;;;;;42.37;18.20;;;;;;;;;;5016097;28;20707;-94
2020/12/20 06:08:14;;;;;;;38.57;16.27;;;;;;;;;;4997995;28;20831;-94
2020/12/20 06:10:41;;;;;;;34.60;16.47;;;;;;;;;;4998973;28;20179;-95
2020/12/20 06:13:09;;;;;;;41.83;18.07;;;;;;;;;;4998464;28;20208;-94
2020/12/20 06:15:36;;;;;;;37.27;15.53;;;;;;;;;;4998529;28;20189;-95
2020/12/20 06:18:07;;;;;;;46.30;16.80;;;;;;;;;;4999299;28;20205;-94
2020/12/20 06:20:37;;;;;;;39.30;15.83;;;;;;;;;;4998667;28;20177;-95
2020/12/20 06:23:08;;;;;;;43.30;16.53;;;;;;;;;;5006421;28;20184;-95
2020/12/20 06:25:43;;;;;;;37.10;14.90;;;;;;;;;;5016235;28;20196;-94
2020/12/20 06:28:14;;;;;;;37.87;17.20;;;;;;;;;;5000544;28;20177;-95
2020/12/20 06:30:40;;;;;;;48.00;21.53;;;;;;;;;;5000546;28;20222;-92
2020/12/20 06:33:08;;;;;;;65.53;28.67;;;;;;;;;;4981716;28;20205;-93
2020/12/20 06:35:40;;;;;;;122.97;67.37;;;;;;;;;;4999737;28;20187;-91
2020/12/20 06:38:11;;;;;;;80.40;41.50;;;;;;;;;;4998340;28;20189;-96
2020/12/20 06:40:40;;;;;;;49.53;21.47;;;;;;;;;;4998303;28;20199;-93
2020/12/20 06:43:26;;;;;;;56.13;20.03;;;;;;;;;;5001348;28;20223;-94
2020/12/20 06:45:55;;;;;;;43.37;18.03;;;;;;;;;;5014638;28;20607;-95
2020/12/20 06:48:33;;;;;;;44.40;16.50;;;;;;;;;;5010295;28;20873;-96
2020/12/20 06:51:00;;;;;;;38.20;14.17;;;;;;;;;;5015439;28;20185;-94
2020/12/20 06:53:45;;;;;;;43.23;18.00;;;-0.40;99.90;;;;;;5053754;28;20223;-94
2020/12/20 06:56:18;;;;;;;43.30;18.60;;;;;;;;;;5026250;28;20560;-92
2020/12/20 06:58:45;;;;;;;42.40;19.80;;;;;;;;;;5046533;28;20190;-92
2020/12/20 07:01:37;;;;;;;97.03;31.17;;;;;;;;;;5034475;28;20157;-90
2020/12/20 07:04:32;;;;;;;107.07;35.83;;;;;;;;;;5038680;28;20214;-94
2020/12/20 07:07:18;;;;;;;64.23;25.30;;;;;;;;;;5034438;28;20186;-94
2020/12/20 07:10:13;;;;;;;68.20;26.27;;;;;;;;;;5021010;28;20179;-93
2020/12/20 07:12:47;;;;;;;82.27;33.03;;;;;;;;;;5040940;28;20224;-94
2020/12/20 07:15:33;;;;;;;47.67;21.67;;;;;;;;;;5005452;28;20195;-94
2020/12/20 07:17:59;;;;;;;75.30;30.70;;;;;;;;;;5014789;28;20234;-96
2020/12/20 07:20:42;;;;;;;73.07;31.13;;;;;;;;;;5000198;28;20191;-95
2020/12/20 07:23:11;;;;;;;68.97;28.83;;;;;;;;;;4998722;28;20283;-92
2020/12/20 07:38:33;;;;;;;;;;;;;;;;;;;;;
2020/12/20 07:44:41;;;;;;;42.13;18.73;;;;;;;;;;4938341;29;20197;-95
2020/12/20 07:47:40;;;;;;;53.80;22.23;;;;;;;;;;4942027;29;20347;-93
2020/12/20 07:50:06;;;;;;;62.20;26.63;;;;;;;;;;4934928;29;20629;-96
2020/12/20 07:52:40;;;;;;;88.80;35.50;;;;;;;;;;4971469;28;20223;-93
2020/12/20 08:23:47;;;;;;;63.93;27.37;;;;;;;;;;5874098;23;20238;-91
2020/12/20 08:42:46;;;;;;;;;;;;;;;;;;;;;
2020/12/20 08:45:17;;;;;;;46.03;18.30;;;;;;;;;;4953455;29;20192;-93
2020/12/20 08:54:55;;;;;;;57.90;25.43;;;;;;;;;;4956690;29;20816;-94
2020/12/20 09:15:39;;;;;;;66.03;29.57;;;;;;;;;;4958885;29;20175;-92
2020/12/20 09:18:27;;;;;;;67.03;27.97;;;;;;;;;;4947615;29;20273;-90
2020/12/20 09:24:17;;;;;;;51.23;21.87;;;;;;;;;;4961357;29;20172;-92
2020/12/20 09:44:47;;;;;;;78.67;28.80;;;;;;;;;;4977530;28;20329;-94
2020/12/20 09:47:22;;;;;;;56.77;22.03;;;;;;;;;;4962646;28;20192;-94
2020/12/20 09:50:10;;;;;;;58.23;23.93;;;;;;;;;;4965377;28;20189;-94
2020/12/20 09:52:59;;;;;;;60.23;23.13;;;;;;;;;;4960514;28;21007;-92
2020/12/20 10:20:57;;;;;;;;;;;;;;;;;;;;;
2020/12/20 10:39:29;;;;;;;52.20;21.47;;;;;;;;;;4956642;29;20167;-94
2020/12/20 10:42:16;;;;;;;63.43;23.90;;;;;;;;;;4943947;28;20198;-95
2020/12/20 10:45:48;;;;;;;46.40;21.43;;;;;;;;;;4971782;28;20227;-92
2020/12/20 10:48:08;;;;;;;84.03;30.50;;;;;;;;;;4955456;29;20193;-90
2020/12/20 10:50:34;;;;;;;58.20;24.83;;;;;;;;;;4957101;28;20191;-90
2020/12/20 10:53:09;;;;;;;72.57;25.27;;;;;;;;;;4979057;28;20299;-91
2020/12/20 10:55:43;;;;;;;71.67;25.47;;;;;;;;;;4972612;28;20218;-93
2020/12/20 10:58:09;;;;;;;47.77;20.07;;;;;;;;;;4974503;28;20271;-88
2020/12/20 11:00:35;;;;;;;40.73;18.10;;;;;;;;;;4972714;28;20186;-93
2020/12/20 11:03:04;;;;;;;62.67;23.37;;;;;;;;;;4977333;28;20269;-94
2020/12/20 11:05:40;;;;;;;52.80;20.73;;;;;;;;;;4992215;28;20188;-92
2020/12/20 11:08:32;;;;;;;41.50;17.87;;;;;;;;;;4954561;29;20199;-96
2020/12/20 11:11:13;;;;;;;63.27;24.07;;;;;;;;;;4960146;28;20202;-91
2020/12/20 11:13:42;;;;;;;56.03;21.10;;;;;;;;;;4990570;28;20211;-91
2020/12/20 11:16:15;;;;;;;59.67;25.13;;;;;;;;;;4992377;28;20197;-91
2020/12/20 11:18:41;;;;;;;36.67;17.47;;;;;;;;;;4981813;28;20660;-91
2020/12/20 11:21:12;;;;;;;64.27;23.77;;;;;;;;;;4989601;28;20182;-91
2020/12/20 11:29:34;;;;;;;50.77;21.40;;;;;;;;;;4977063;28;20230;-92
2020/12/20 11:32:08;;;;;;;45.47;21.53;;;;;;;;;;4990111;28;20232;-93
2020/12/20 11:34:54;;;;;;;83.20;34.90;;;;;;;;;;4970961;28;20221;-93
2020/12/20 11:37:43;;;;;;;42.17;19.87;;;;;;;;;;4944976;28;20199;-93
2020/12/20 11:40:13;;;;;;;55.70;21.27;;;;;;;;;;4967012;28;20241;-92
2020/12/20 11:42:42;;;;;;;56.97;21.87;;;;;;;;;;4991601;28;20218;-94
2020/12/20 11:45:11;;;;;;;43.07;18.00;;;;;;;;;;4976963;28;20249;-92
2020/12/20 11:47:40;;;;;;;62.70;26.40;;;;;;;;;;4977230;28;20186;-90
2020/12/20 11:50:08;;;;;;;53.20;20.80;;;;;;;;;;4955169;29;20189;-88
2020/12/20 11:52:37;;;;;;;47.67;21.30;;;;;;;;;;4962419;28;20207;-92
2020/12/20 11:55:06;;;;;;;54.07;21.57;;;;;;;;;;4984296;28;20588;-91
2020/12/20 11:57:56;;;;;;;45.70;18.80;;;;;;;;;;4998591;28;20185;-90
2020/12/20 12:00:22;;;;;;;40.10;17.90;;;;;;;;;;4950287;29;20173;-92
2020/12/20 12:02:52;;;;;;;57.20;20.77;;;;;;;;;;4979393;28;20303;-91
2020/12/20 12:05:18;;;;;;;39.33;17.23;;;;;;;;;;4947113;28;20670;-90
2020/12/20 12:07:44;;;;;;;52.80;22.50;;;;;;;;;;4943253;29;20340;-91
2020/12/20 12:10:10;;;;;;;53.80;21.40;;;;;;;;;;4956944;29;20190;-94
2020/12/20 12:12:38;;;;;;;50.47;18.73;;;;;;;;;;4955177;29;20266;-90
2020/12/20 12:15:05;;;;;;;55.90;21.97;;;;;;;;;;4953659;29;20241;-88
2020/12/20 12:17:31;;;;;;;45.30;20.43;;;;;;;;;;4953937;29;20181;-93
2020/12/20 12:20:03;;;;;;;48.00;17.97;;;;;;;;;;4953784;29;20208;-89
2020/12/20 12:22:31;;;;;;;44.50;17.47;;;;;;;;;;4953276;29;20280;-89
2020/12/20 12:24:57;;;;;;;48.20;18.87;;;;;;;;;;4953413;29;20294;-87
2020/12/20 12:27:23;;;;;;;39.77;18.13;;;;;;;;;;4953352;29;20238;-89
2020/12/20 12:30:25;;;;;;;76.60;28.97;;;;;;;;;;4954118;28;20191;-91
2020/12/20 12:32:54;;;;;;;49.87;22.77;;;;;;;;;;4989466;28;20214;-91
2020/12/20 12:35:21;;;;;;;48.50;20.37;;;;;;;;;;4988839;28;20190;-90
2020/12/20 12:37:50;;;;;;;62.00;22.23;;;;;;;;;;4988845;28;20597;-89
2020/12/20 12:40:47;;;;;;;;;;;;;;;;;;;;;
2020/12/20 12:43:08;;;;;;;48.13;21.43;;;;;;;;;;4955021;28;20198;-91
2020/12/20 12:52:20;;;;;;;62.20;23.50;;;;;;;;;;4969730;28;20213;-95
2020/12/20 12:54:47;;;;;;;47.60;20.70;;;;;;;;;;4935413;29;20738;-94
2020/12/20 12:57:13;;;;;;;114.80;36.70;;;;;;;;;;4965145;28;20652;-92
2020/12/20 12:59:39;;;;;;;88.83;31.00;;;;;;;;;;4960234;28;20194;-90
2020/12/20 13:02:06;;;;;;;51.07;22.60;;;;;;;;;;4979848;28;20194;-91
2020/12/20 13:04:35;;;;;;;102.37;33.27;;;;;;;;;;4978455;28;20210;-91
2020/12/20 13:07:02;;;;;;;63.13;25.63;;;;;;;;;;4979184;28;20297;-91
2020/12/20 13:09:28;;;;;;;48.90;22.33;;;;;;;;;;4977838;28;20175;-93
2020/12/20 13:12:04;;;;;;;74.63;25.23;;;;;;;;;;4977334;28;20273;-92
2020/12/20 13:14:30;;;;;;;74.70;27.20;;;;;;;;;;4983368;28;20192;-89
2020/12/20 13:16:56;;;;;;;55.90;21.23;;;;;;;;;;4956405;28;20303;-87
2020/12/20 13:19:38;;;;;;;86.00;32.57;;;;;;;;;;4940581;29;20218;-92
2020/12/20 13:22:04;;;;;;;52.43;22.03;;;;;;;;;;4970253;28;20515;-92
2020/12/20 13:24:30;;;;;;;61.17;24.53;;;;;;;;;;4970463;28;20619;-89
2020/12/20 13:26:57;;;;;;;67.03;29.70;;;;;;;;;;4968784;28;20183;-88
2020/12/20 13:29:23;;;;;;;50.23;22.07;;;;;;;;;;4971900;28;20185;-94
2020/12/20 13:32:05;;;;;;;;;;;;;;;;;;;;;
2020/12/20 13:34:52;;;;;;;59.07;23.53;;;;;;;;;;4955918;29;20178;-92
2020/12/20 13:37:30;;;;;;;57.87;26.13;;;;;;;;;;4947975;29;20191;-91
2020/12/20 13:39:58;;;;;;;44.87;20.10;;;;;;;;;;4961163;28;20289;-91
2020/12/20 13:42:24;;;;;;;70.37;26.53;;;;;;;;;;4963419;28;20241;-90
2020/12/20 13:44:53;;;;;;;62.30;28.07;;;;;;;;;;4976169;28;20263;-89
2020/12/20 13:47:21;;;;;;;63.30;28.43;;;;;;;;;;4968782;28;20198;-90
2020/12/20 13:49:47;;;;;;;58.83;24.77;;;;;;;;;;4952749;28;20552;-89
2020/12/20 13:52:14;;;;;;;59.90;23.20;;;;;;;;;;4953644;29;20219;-91
2020/12/20 13:54:40;;;;;;;65.90;28.93;;;;;;;;;;4969093;28;20333;-87
2020/12/20 13:57:06;;;;;;;114.43;38.93;;;;;;;;;;4972582;28;20187;-87
2020/12/20 13:59:39;;;;;;;268.10;81.20;;;;;;;;;;4957509;29;20241;-91
2020/12/20 14:02:06;;;;;;;133.57;46.97;;;;;;;;;;4957860;28;20209;-91
2020/12/20 14:04:32;;;;;;;160.40;55.83;;;;;;;;;;4972157;28;20557;-90
2020/12/20 14:07:00;;;;;;;181.10;58.00;;;;;;;;;;4973290;28;20183;-93
2020/12/20 14:12:35;;;;;;;175.63;57.53;;;;;;;;;;4960916;28;20292;-92
2020/12/20 14:15:15;;;;;;;107.43;38.70;;;;;;;;;;4949656;28;20715;-96
2020/12/20 14:17:56;;;;;;;120.03;44.00;;;;;;;;;;4957565;28;20210;-96
2020/12/20 14:20:23;;;;;;;79.37;28.13;;;;;;;;;;4986912;28;20237;-91
2020/12/20 14:22:50;;;;;;;79.03;29.20;;;;;;;;;;4972625;28;20248;-92
2020/12/20 14:25:16;;;;;;;103.97;36.10;;;;;;;;;;4977079;28;20187;-93
2020/12/20 14:27:42;;;;;;;111.73;41.87;;;;;;;;;;4978118;28;20183;-91
2020/12/20 14:36:34;;;;;;;99.27;39.43;;;;;;;;;;4966170;28;20288;-91
2020/12/20 14:39:01;;;;;;;92.63;39.87;;;;;;;;;;4989178;28;20178;-94
2020/12/20 14:41:56;;;;;;;;;;;;;;;;;;;;;
2020/12/20 14:44:22;;;;;;;116.87;47.50;;;;;;;;;;5000302;28;20253;-92
2020/12/20 14:47:20;;;;;;;207.57;61.30;;;;;;;;;;4988852;28;20336;-95
2020/12/20 14:49:54;;;;;;;139.33;45.00;;;;;;;;;;4976050;28;20218;-95
2020/12/20 14:52:26;;;;;;;77.70;34.17;;;;;;;;;;5043046;23;20232;-93
2020/12/20 14:57:47;;;;;;;;;;;;;;;;;;;;;
2020/12/20 15:00:25;;;;;;;83.80;33.37;;;;;;;;;;5010150;28;20213;-96
2020/12/20 15:05:34;;;;;;;83.47;31.83;;;;;;;;;;4999498;28;20243;-96
2020/12/20 15:08:17;;;;;;;79.77;29.23;;;;;;;;;;4999287;28;20633;-93
2020/12/20 15:10:45;;;;;;;64.00;28.47;;;;;;;;;;4953295;28;20201;-95
2020/12/20 15:16:44;;;;;;;65.90;26.03;;;;;;;;;;4985248;28;20196;-95
2020/12/20 15:21:55;;;;;;;78.70;29.30;;;;;;;;;;5240706;23;20279;-96
2020/12/20 15:24:26;;;;;;;109.40;39.20;;;;;;;;;;4981116;28;20183;-96
2020/12/20 15:27:01;;;;;;;84.97;34.30;;;;;;;;;;4965604;28;20289;-95
2020/12/20 15:29:33;;;;;;;86.07;34.23;;;;;;;;;;4981011;28;20277;-95
2020/12/20 15:31:59;;;;;;;71.47;31.60;;;;;;;;;;4983773;28;20303;-94
2020/12/20 15:34:25;;;;;;;85.13;32.50;;;;;;;;;;4982088;28;20198;-94
2020/12/20 15:36:55;;;;;;;71.87;29.73;;;;;;;;;;4978176;28;20286;-93
2020/12/20 15:39:22;;;;;;;70.43;27.53;;;;;;;;;;4961424;28;20186;-96
2020/12/20 15:41:55;;;;;;;69.33;28.90;;;;;;;;;;4968936;28;20256;-95
2020/12/20 15:47:06;;;;;;;76.73;33.13;;;;;;;;;;5334378;23;20253;-96
2020/12/20 15:58:24;;;;;;;71.23;30.00;;;;;;;;;;4995411;28;20168;-93
2020/12/20 16:01:14;;;;;;;66.97;28.50;;;;;;;;;;4994938;28;20182;-93
2020/12/20 16:03:42;;;;;;;82.93;32.40;;;;;;;;;;4995658;28;20204;-92
2020/12/20 16:06:11;;;;;;;90.40;34.10;;;;;;;;;;4997461;28;20184;-94
2020/12/20 16:08:37;;;;;;;72.73;30.33;;;;;;;;;;4993826;28;20182;-89
2020/12/20 16:11:03;;;;;;;70.87;30.50;;;;;;;;;;4993743;28;20191;-94
2020/12/20 16:13:36;;;;;;;66.27;27.73;;;;;;;;;;4995684;28;20648;-94
2020/12/20 16:16:03;;;;;;;58.77;23.60;;;;;;;;;;4994959;28;20276;-94
2020/12/20 16:18:29;;;;;;;60.70;25.13;;;;;;;;;;4995031;28;20193;-93
2020/12/20 16:20:58;;;;;;;52.43;20.93;;;;;;;;;;4997473;28;20180;-95
2020/12/20 16:24:25;;;;;;;;;;;;;;;;;;;;;
2020/12/20 16:26:54;;;;;;;43.80;20.67;;;;;;;;;;4996404;28;20245;-94
2020/12/20 16:29:26;;;;;;;52.20;23.23;;;;;;;;;;5000040;28;20181;-94
2020/12/20 16:32:18;;;;;;;55.10;25.63;;;0.30;99.90;;;;;;4996211;28;20237;-95
2020/12/20 16:37:33;;;;;;;65.60;25.67;;;;;;;;;;4975880;28;20188;-93
2020/12/20 16:40:03;;;;;;;70.57;28.83;;;;;;;;;;4999998;28;20656;-90
2020/12/20 16:42:34;;;;;;;78.57;34.83;;;;;;;;;;5002458;28;20174;-95
2020/12/20 16:45:01;;;;;;;65.67;28.40;;;;;;;;;;4972637;28;20244;-94
2020/12/20 16:58:23;;;;;;;79.43;29.93;;;;;;;;;;5142982;23;20236;-95
2020/12/20 17:04:19;;;;;;;83.53;35.00;;;;;;;;;;4962991;28;20216;-93
2020/12/20 17:06:45;;;;;;;66.67;29.83;;;;;;;;;;4961905;28;20186;-93
2020/12/20 17:09:18;;;;;;;63.17;27.23;;;0.60;99.90;;;;;;4996411;28;20174;-93
2020/12/20 17:15:07;;;;;;;66.97;29.70;;;3.50;99.90;;;;;;5004559;28;20259;-96
2020/12/20 17:17:46;;;;;;;;;;;;;;;;;;;;;
2020/12/20 17:27:53;;;;;;;134.27;59.23;;;1.00;99.90;;;;;;4956027;29;20219;-94
2020/12/20 17:30:19;;;;;;;94.33;40.80;;;1.10;99.90;;;;;;4941078;29;20247;-91
2020/12/20 17:32:48;;;;;;;84.07;38.07;;;2.90;99.90;;;;;;4942475;29;20217;-93
2020/12/20 17:38:45;;;;;;;112.13;54.50;;;1.20;99.90;;;;;;4961373;29;20201;-93
2020/12/20 17:41:12;;;;;;;211.87;86.20;;;2.10;99.90;;;;;;4936841;28;20301;-95
2020/12/20 17:43:38;;;;;;;119.20;50.37;;;1.00;99.90;;;;;;4978884;28;20602;-94
2020/12/20 17:46:29;;;;;;;130.10;56.53;;;2.20;99.90;;;;;;4964993;28;20193;-93
2020/12/20 17:48:58;;;;;;;127.07;57.50;;;0.90;99.90;;;;;;4977795;28;20254;-94
2020/12/20 17:51:26;;;;;;;137.00;58.90;;;3.10;99.90;;;;;;4978514;28;20825;-93
2020/12/20 17:53:52;;;;;;;111.40;49.30;;;1.10;99.90;;;;;;4987464;28;20213;-92
2020/12/20 17:56:19;;;;;;;112.07;49.03;;;1.10;99.90;;;;;;4961682;28;20183;-94
2020/12/20 17:58:48;;;;;;;107.27;47.73;;;1.20;99.90;;;;;;4963085;28;20221;-92
2020/12/20 18:01:16;;;;;;;109.23;47.63;;;1.20;99.90;;;;;;4979464;28;20186;-94
2020/12/20 18:03:42;;;;;;;107.33;46.77;;;1.30;99.90;;;;;;4982159;28;20201;-92
2020/12/20 18:07:02;;;;;;;;;;;;;;;;;;;;;
2020/12/20 18:09:46;;;;;;;103.77;46.17;;;0.60;99.90;;;;;;5175282;23;20338;-94
2020/12/20 18:12:30;;;;;;;124.37;56.50;;;0.00;99.90;;;;;;4990896;28;20230;-95
2020/12/20 18:14:56;;;;;;;99.73;41.83;;;1.20;99.90;;;;;;5031833;28;20189;-92
2020/12/20 18:17:21;;;;;;;96.60;42.17;;;3.80;99.90;;;;;;4996893;28;20173;-92
2020/12/20 18:19:49;;;;;;;136.97;63.87;;;1.70;99.90;;;;;;4997188;28;20181;-93
2020/12/20 18:22:15;;;;;;;109.13;41.73;;;1.20;99.90;;;;;;4997934;28;20178;-94
2020/12/20 18:24:44;;;;;;;100.57;43.67;;;1.20;99.90;;;;;;4998009;28;20254;-92
2020/12/20 18:27:12;;;;;;;100.30;42.57;;;2.80;99.90;;;;;;4999544;28;20173;-95
2020/12/20 18:29:43;;;;;;;121.87;45.50;;;2.40;99.90;;;;;;4996194;28;20287;-92
2020/12/20 18:32:08;;;;;;;130.00;46.37;;;1.20;99.90;;;;;;4985799;28;20301;-95
2020/12/20 18:34:34;;;;;;;199.37;65.20;;;1.10;99.90;;;;;;4977825;28;20213;-94
2020/12/20 18:37:00;;;;;;;91.80;37.53;;;-0.20;99.90;;;;;;4944392;28;20186;-93
2020/12/20 18:39:29;;;;;;;71.43;31.87;;;1.80;99.90;;;;;;4977722;28;20182;-95